Time;durP1;ratioP1;P1;durP2;ratioP2;P2;SDS_P1;SDS_P2;PMS_P1;PMS_P2;Temp;Humidity;BMP_temperature;BMP_pressure;BME280_temperature;BME280_humidity;BME280_pressure;Samples;Min_cycle;Max_cycle;Signal;HPM_P1;HPM_P2
2021/11/20 00:00:38;;;;;;;9.82;6.20;;;;;;;11.45;83.25;102838.63;5050284;28;20064;-40
2021/11/20 00:03:04;;;;;;;14.07;6.40;;;;;;;11.43;83.62;102836.09;5044571;28;20498;-41
2021/11/20 00:05:33;;;;;;;10.80;6.50;;;;;;;11.42;83.66;102833.53;5041001;28;20044;-40
2021/11/20 00:08:00;;;;;;;11.73;6.45;;;;;;;11.42;83.64;102839.75;5035331;28;20025;-41
2021/11/20 00:10:28;;;;;;;13.05;7.10;;;;;;;11.46;83.50;102840.34;5039399;28;20108;-42
2021/11/20 00:12:54;;;;;;;19.63;7.75;;;;;;;11.50;83.62;102833.69;5035977;28;20022;-41
2021/11/20 00:15:23;;;;;;;12.40;7.25;;;;;;;11.49;83.48;102821.19;5047363;28;20465;-41
2021/11/20 00:17:49;;;;;;;10.80;7.45;;;;;;;11.42;83.09;102820.03;5052365;28;20039;-41
2021/11/20 00:20:17;;;;;;;15.77;7.63;;;;;;;11.43;83.33;102830.69;5055251;28;20112;-41
2021/11/20 00:22:43;;;;;;;;;;;;;;;11.45;83.31;102837.78;5055411;28;20632;-42
2021/11/20 00:25:19;;;;;;;15.00;7.65;;;;;;;11.49;83.23;102825.75;5044597;28;20004;-40
2021/11/20 00:27:44;;;;;;;13.40;7.70;;;;;;;11.42;82.45;102811.97;5036426;28;20036;-40
2021/11/20 00:32:46;;;;;;;18.42;8.00;;;;;;;11.37;82.29;102822.31;5044338;28;20115;-40
2021/11/20 00:35:21;;;;;;;17.35;8.63;;;;;;;11.30;82.36;102816.63;5035707;28;20026;-40
2021/11/20 00:37:46;;;;;;;16.55;8.00;;;;;;;11.25;82.08;102805.41;5040216;28;20033;-40
2021/11/20 00:40:17;;;;;;;18.67;9.50;;;;;;;11.25;82.42;102808.09;5050361;28;20036;-41
2021/11/20 00:42:43;;;;;;;15.25;8.45;;;;;;;11.32;81.82;102808.38;5047978;28;20202;-41
2021/11/20 00:45:09;;;;;;;15.05;8.55;;;;;;;11.33;82.23;102808.25;5036615;28;20030;-41
2021/11/20 00:47:35;;;;;;;15.88;9.10;;;;;;;11.31;81.71;102804.00;5046362;28;20116;-41
2021/11/20 00:50:01;;;;;;;26.83;9.48;;;;;;;11.30;81.59;102810.38;5052429;28;20510;-41
2021/11/20 00:52:28;;;;;;;14.68;9.50;;;;;;;11.29;81.66;102814.91;5054682;28;20112;-41
2021/11/20 00:54:53;;;;;;;21.67;9.80;;;;;;;11.25;81.76;102804.56;5041682;28;20118;-41
2021/11/20 00:57:19;;;;;;;14.63;10.20;;;;;;;11.17;81.85;102787.22;5038398;28;20025;-41
2021/11/20 00:59:44;;;;;;;16.98;11.25;;;;;;;11.12;81.63;102797.56;5036559;28;20030;-41
2021/11/20 01:02:09;;;;;;;17.50;10.27;;;;;;;11.17;81.68;102818.72;5035332;28;20035;-41
2021/11/20 01:04:36;;;;;;;18.52;11.13;;;;;;;11.19;81.63;102817.59;5042706;28;20040;-41
2021/11/20 01:07:03;;;;;;;17.98;10.73;;;;;;;11.18;81.58;102806.94;5036641;28;20042;-40
2021/11/20 01:09:37;;;;;;;18.00;10.83;;;;;;;11.17;81.46;102800.69;5035714;28;20025;-40
2021/11/20 01:12:10;;;;;;;20.05;11.88;;;;;;;11.15;81.09;102804.53;5034213;28;20033;-40
2021/11/20 01:14:37;;;;;;;22.02;12.02;;;;;;;11.13;81.23;102807.34;5042357;28;20041;-40
2021/11/20 01:17:05;;;;;;;18.27;12.57;;;;;;;11.05;81.40;102799.09;5049856;28;20029;-40
2021/11/20 01:19:31;;;;;;;20.73;13.20;;;;;;;11.04;81.29;102796.56;5033757;28;20074;-40
2021/11/20 01:21:58;;;;;;;22.05;13.77;;;;;;;11.04;81.55;102789.31;5031864;28;20440;-40
2021/11/20 01:24:24;;;;;;;20.83;13.18;;;;;;;11.03;81.45;102794.84;5045731;28;20120;-41
2021/11/20 01:26:50;;;;;;;20.75;13.27;;;;;;;11.05;81.38;102798.25;5052405;28;20131;-41
2021/11/20 01:29:17;;;;;;;19.70;12.70;;;;;;;11.09;81.14;102805.09;5048971;28;20032;-41
2021/11/20 01:31:44;;;;;;;19.50;13.55;;;;;;;11.04;81.19;102799.25;5051720;28;20029;-41
2021/11/20 01:34:10;;;;;;;23.60;13.45;;;;;;;11.03;80.80;102797.53;5043420;28;20033;-41
2021/11/20 01:36:38;;;;;;;21.00;13.13;;;;;;;10.98;80.86;102789.88;5040036;28;20076;-41
2021/11/20 01:39:09;;;;;;;20.58;13.32;;;;;;;11.01;81.12;102780.66;5034033;28;20052;-41
2021/11/20 01:41:36;;;;;;;21.40;13.30;;;;;;;11.03;81.00;102789.44;5034243;28;20041;-41
2021/11/20 01:44:16;;;;;;;21.67;13.43;;;;;;;11.03;81.12;102784.91;5041912;28;20114;-41
2021/11/20 01:46:45;;;;;;;21.75;12.85;;;;;;;11.07;81.47;102796.28;5052019;28;20451;-41
2021/11/20 01:49:33;;;;;;;19.85;13.77;;;;;;;11.04;81.35;102780.41;5054364;28;20025;-41
2021/11/20 01:52:10;;;;;;;;;;;;;;;11.02;81.00;102780.53;5038287;28;20068;-41
2021/11/20 01:54:41;;;;;;;23.95;13.68;;;;;;;10.96;81.30;102775.69;5037165;28;19909;-40
2021/11/20 01:57:06;;;;;;;24.90;14.85;;;;;;;11.00;81.38;102779.78;5037855;28;20063;-40
2021/11/20 01:59:43;;;;;;;23.25;14.77;;;;;;;10.98;81.41;102768.31;5046058;28;20026;-40
2021/11/20 02:02:29;;;;;;;24.80;14.75;;;;;;;10.93;81.51;102775.97;5040682;28;20037;-41
2021/11/20 02:05:11;;;;;;;26.70;14.93;;;;;;;10.92;81.31;102772.41;5044338;28;20112;-40
2021/11/20 02:07:45;;;;;;;28.98;15.80;;;;;;;10.85;81.78;102767.69;5041548;28;20065;-41
2021/11/20 02:10:16;;;;;;;26.20;15.93;;;;;;;10.84;81.88;102766.84;5037734;28;20464;-40
2021/11/20 02:12:57;;;;;;;26.58;16.63;;;;;;;10.82;81.73;102767.97;5037266;28;20025;-40
2021/11/20 02:15:40;;;;;;;25.38;16.13;;;;;;;10.81;81.74;102767.13;5036154;28;20041;-40
2021/11/20 02:18:08;;;;;;;28.15;15.93;;;;;;;10.88;81.73;102770.13;5041531;28;20438;-41
2021/11/20 02:20:45;;;;;;;28.33;15.50;;;;;;;10.87;81.45;102763.88;5041816;28;20390;-41
2021/11/20 02:23:11;;;;;;;28.33;15.75;;;;;;;10.86;81.34;102766.72;5054255;28;20500;-40
2021/11/20 02:25:36;;;;;;;25.50;14.90;;;;;;;10.86;81.23;102764.03;5056133;28;20049;-41
2021/11/20 02:28:02;;;;;;;30.05;15.52;;;;;;;10.84;81.15;102758.75;5050414;28;20287;-40
2021/11/20 02:30:33;;;;;;;25.45;15.52;;;;;;;10.88;81.20;102751.28;5037541;28;20354;-40
2021/11/20 02:33:05;;;;;;;23.63;14.18;;;;;;;10.91;81.36;102753.69;5042978;28;20424;-40
2021/11/20 02:35:38;;;;;;;24.52;15.05;;;;;;;10.86;80.97;102759.47;5057703;28;20068;-40
2021/11/20 02:38:05;;;;;;;26.25;14.77;;;;;;;10.86;80.71;102755.94;5057935;28;20037;-40
2021/11/20 02:40:31;;;;;;;26.23;14.57;;;;;;;10.89;80.73;102752.97;5041098;28;20108;-40
2021/11/20 02:42:56;;;;;;;21.48;13.95;;;;;;;10.86;80.52;102745.16;5039818;28;20053;-41
2021/11/20 02:45:29;;;;;;;23.67;14.27;;;;;;;10.89;80.72;102745.72;5057362;28;20029;-41
2021/11/20 02:47:55;;;;;;;24.48;13.80;;;;;;;10.84;80.34;102739.91;5055426;28;20112;-41
2021/11/20 02:50:43;;;;;;;24.42;14.00;;;;;;;10.85;80.45;102743.44;5051578;28;20037;-40
2021/11/20 02:53:19;;;;;;;20.55;12.60;;;;;;;10.87;79.94;102747.72;5057720;28;20047;-41
2021/11/20 02:55:48;;;;;;;19.02;12.68;;;;;;;10.88;79.93;102743.19;5037176;28;20043;-40
2021/11/20 02:58:15;;;;;;;20.48;12.98;;;;;;;10.89;80.00;102734.97;5036632;28;20461;-40
2021/11/20 03:00:41;;;;;;;18.95;12.18;;;;;;;10.93;79.93;102731.00;5053482;28;20040;-40
2021/11/20 03:03:07;;;;;;;19.33;12.00;;;;;;;10.95;80.30;102720.09;5056798;28;20368;-40
2021/11/20 03:05:32;;;;;;;18.92;12.38;;;;;;;10.94;79.49;102715.69;5052044;28;20112;-40
2021/11/20 03:07:57;;;;;;;19.33;12.73;;;;;;;10.94;79.76;102718.38;5057088;28;20023;-41
2021/11/20 03:10:22;;;;;;;21.27;12.00;;;;;;;10.95;79.43;102712.00;5046971;28;20472;-40
2021/11/20 03:12:48;;;;;;;18.45;11.20;;;;;;;10.94;79.34;102716.53;5057077;28;20029;-41
2021/11/20 03:15:14;;;;;;;19.40;11.43;;;;;;;10.93;79.16;102719.41;5056336;28;20043;-41
2021/11/20 03:17:40;;;;;;;20.17;11.15;;;;;;;10.91;79.13;102724.91;5056560;28;20029;-41
2021/11/20 03:20:08;;;;;;;18.73;11.32;;;;;;;10.87;79.12;102719.94;5051933;28;20040;-41
2021/11/20 03:22:44;;;;;;;18.55;11.20;;;;;;;10.82;79.01;102717.66;5035630;28;20096;-41
2021/11/20 03:25:09;;;;;;;18.25;12.00;;;;;;;10.84;79.34;102712.97;5053413;28;20086;-41
2021/11/20 03:27:35;;;;;;;16.70;11.82;;;;;;;10.88;79.20;102703.63;5056525;28;20017;-40
2021/11/20 03:30:03;;;;;;;20.30;11.75;;;;;;;10.86;79.01;102702.06;5058207;28;20494;-41
2021/11/20 03:32:28;;;;;;;17.17;11.80;;;;;;;10.88;78.98;102708.19;5061984;28;20025;-41
2021/11/20 03:34:53;;;;;;;15.95;11.90;;;;;;;10.83;78.42;102699.66;5056575;28;20077;-41
2021/11/20 03:37:22;;;;;;;23.65;12.63;;;;;;;10.80;78.94;102702.63;5050573;28;20013;-40
2021/11/20 03:39:48;;;;;;;19.23;11.95;;;;;;;10.77;79.13;102693.84;5039724;28;20131;-41
2021/11/20 03:42:13;;;;;;;17.75;12.20;;;;;;;10.74;78.64;102686.03;5036714;28;20084;-40
2021/11/20 03:44:39;;;;;;;18.75;12.52;;;;;;;10.77;78.60;102688.44;5036389;28;20029;-41
2021/11/20 03:47:05;;;;;;;17.42;11.70;;;;;;;10.80;78.52;102694.56;5036199;28;20029;-41
2021/11/20 03:49:30;;;;;;;15.52;11.18;;;;;;;10.82;78.18;102684.47;5046603;28;20048;-41
2021/11/20 03:51:56;;;;;;;18.42;12.98;;;;;;;10.83;77.80;102691.59;5048482;28;20029;-41
2021/11/20 03:54:22;;;;;;;16.40;12.30;;;;;;;10.81;78.14;102683.63;5048213;28;20033;-41
2021/11/20 03:56:47;;;;;;;17.38;12.23;;;;;;;10.81;78.12;102677.38;5056104;28;20468;-41
2021/11/20 03:59:12;;;;;;;18.67;13.07;;;;;;;10.78;78.00;102670.44;5047814;28;20037;-41
2021/11/20 04:01:38;;;;;;;19.55;13.30;;;;;;;10.79;77.81;102676.66;5048233;28;20336;-40
2021/11/20 04:04:04;;;;;;;18.73;13.40;;;;;;;10.79;77.91;102673.97;5055699;28;20138;-41
2021/11/20 04:06:29;;;;;;;19.05;13.57;;;;;;;10.80;78.22;102675.69;5055733;28;20029;-40
2021/11/20 04:08:55;;;;;;;17.88;13.65;;;;;;;10.79;77.86;102677.50;5048079;28;20025;-40
2021/11/20 04:11:24;;;;;;;17.55;14.70;;;;;;;10.82;77.89;102679.97;5039754;28;20029;-41
2021/11/20 04:13:50;;;;;;;21.35;14.88;;;;;;;10.83;78.05;102680.81;5035668;28;20040;-41
2021/11/20 04:16:17;;;;;;;19.73;15.07;;;;;;;10.85;77.38;102685.06;5035623;28;20376;-41
2021/11/20 04:18:44;;;;;;;20.23;15.63;;;;;;;10.86;77.95;102689.44;5042627;28;20111;-41
2021/11/20 04:21:11;;;;;;;22.52;15.75;;;;;;;10.86;78.12;102686.75;5055402;28;20032;-41
2021/11/20 04:23:37;;;;;;;24.60;15.52;;;;;;;10.87;77.21;102674.13;5044689;28;20480;-41
2021/11/20 04:26:04;;;;;;;20.13;15.27;;;;;;;10.81;77.52;102677.38;5035252;28;20050;-41
2021/11/20 04:28:30;;;;;;;18.95;15.18;;;;;;;10.76;77.46;102673.25;5035524;28;20032;-41
2021/11/20 04:30:55;;;;;;;19.25;15.15;;;;;;;10.75;77.85;102674.25;5035421;28;20029;-41
2021/11/20 04:33:22;;;;;;;23.60;14.68;;;;;;;10.78;77.73;102673.13;5034990;28;20487;-40
2021/11/20 04:35:47;;;;;;;22.85;14.98;;;;;;;10.78;77.64;102662.34;5035008;28;20053;-41
2021/11/20 04:38:13;;;;;;;20.17;15.75;;;;;;;10.76;77.48;102658.94;5036347;28;20065;-41
2021/11/20 04:40:39;;;;;;;21.48;16.63;;;;;;;10.74;77.56;102656.41;5037610;28;20110;-41
2021/11/20 04:43:05;;;;;;;19.95;16.23;;;;;;;10.77;77.92;102661.50;5034835;28;20036;-41
2021/11/20 04:45:32;;;;;;;20.63;16.65;;;;;;;10.76;77.47;102659.78;5035052;28;20408;-41
2021/11/20 04:47:59;;;;;;;29.95;18.33;;;;;;;10.76;77.64;102657.09;5039492;28;20048;-41
2021/11/20 04:50:25;;;;;;;26.10;17.92;;;;;;;10.77;77.68;102660.66;5041827;28;20052;-40
2021/11/20 04:52:51;;;;;;;30.30;20.10;;;;;;;10.76;77.70;102659.78;5043363;28;20029;-41
2021/11/20 04:55:18;;;;;;;30.08;21.80;;;;;;;10.67;77.91;102657.94;5038797;28;20025;-41
2021/11/20 04:57:44;;;;;;;31.90;22.23;;;;;;;10.68;78.20;102667.72;5051895;28;20052;-40
2021/11/20 05:00:14;;;;;;;32.53;23.13;;;;;;;10.67;78.34;102659.78;5034770;28;20026;-40
2021/11/20 05:02:40;;;;;;;34.15;22.95;;;;;;;10.67;78.23;102649.03;5033961;28;20469;-40
2021/11/20 05:05:06;;;;;;;29.10;20.63;;;;;;;10.66;77.83;102653.53;5034564;28;20110;-40
2021/11/20 05:07:31;;;;;;;33.42;21.13;;;;;;;10.65;77.97;102657.22;5035045;28;20034;-40
2021/11/20 05:09:58;;;;;;;31.15;21.05;;;;;;;10.68;78.02;102656.94;5034529;28;20025;-40
2021/11/20 05:12:23;;;;;;;33.78;22.38;;;;;;;10.70;78.29;102656.81;5037067;28;20025;-41
2021/11/20 05:14:49;;;;;;;33.67;21.65;;;;;;;10.65;78.44;102654.53;5034632;28;20108;-41
2021/11/20 05:17:14;;;;;;;36.75;24.05;;;;;;;10.65;78.69;102649.16;5034638;28;20338;-41
2021/11/20 05:19:39;;;;;;;36.50;25.08;;;;;;;10.62;78.96;102646.72;5051879;28;20383;-40
2021/11/20 05:22:05;;;;;;;39.65;25.73;;;;;;;10.58;79.24;102639.91;5036671;28;20044;-41
2021/11/20 05:24:30;;;;;;;40.08;25.35;;;;;;;10.60;79.75;102635.25;5035834;28;20072;-40
2021/11/20 05:26:56;;;;;;;39.97;26.15;;;;;;;10.62;79.68;102641.34;5046498;28;20041;-41
2021/11/20 05:32:19;;;;;;;43.28;26.83;;;;;;;10.61;79.77;102633.41;5019730;28;20506;-41
2021/11/20 05:34:45;;;;;;;44.00;27.50;;;;;;;10.56;79.58;102636.53;5032527;28;20017;-41
2021/11/20 05:37:11;;;;;;;46.10;28.67;;;;;;;10.60;80.19;102631.72;5030836;28;20029;-43
2021/11/20 05:39:36;;;;;;;47.90;28.23;;;;;;;10.54;79.84;102633.97;5034963;28;20025;-40
2021/11/20 05:42:02;;;;;;;45.05;28.67;;;;;;;10.51;79.92;102623.47;5042392;28;20506;-41
2021/11/20 05:44:27;;;;;;;44.38;27.17;;;;;;;10.51;79.67;102628.00;5049963;28;20043;-41
2021/11/20 05:46:58;;;;;;;47.53;28.80;;;;;;;10.53;80.33;102620.63;5049095;28;20064;-41
2021/11/20 05:49:25;;;;;;;46.08;27.15;;;;;;;10.47;79.59;102615.81;5047039;28;20025;-45
2021/11/20 05:51:50;;;;;;;47.53;29.20;;;;;;;10.47;80.08;102615.81;5048613;28;20564;-41
2021/11/20 05:54:15;;;;;;;47.33;28.65;;;;;;;10.42;79.90;102613.50;5048544;28;20397;-41
2021/11/20 05:56:41;;;;;;;45.00;29.25;;;;;;;10.42;79.94;102618.06;5048875;28;20029;-42
2021/11/20 05:59:06;;;;;;;44.05;27.35;;;;;;;10.39;80.09;102608.41;5047546;28;20031;-41
2021/11/20 06:01:32;;;;;;;46.13;29.80;;;;;;;10.43;79.85;102609.00;5046892;28;20051;-42
2021/11/20 06:03:57;;;;;;;42.40;27.65;;;;;;;10.46;80.01;102603.34;5048068;28;20024;-41
2021/11/20 06:06:24;;;;;;;45.55;29.80;;;;;;;10.47;79.85;102602.34;5047647;28;20089;-43
2021/11/20 06:08:49;;;;;;;44.20;28.63;;;;;;;10.48;79.78;102598.69;5046534;28;20036;-40
2021/11/20 06:11:17;;;;;;;43.15;27.85;;;;;;;10.43;79.83;102595.53;5047499;28;20033;-41
2021/11/20 06:13:43;;;;;;;44.58;28.80;;;;;;;10.41;79.94;102590.28;5046594;28;20484;-41
2021/11/20 06:16:09;;;;;;;42.08;27.80;;;;;;;10.38;79.77;102585.19;5047722;28;20052;-42
2021/11/20 06:18:34;;;;;;;48.55;27.98;;;;;;;10.38;79.62;102585.19;5045935;28;20071;-41
2021/11/20 06:21:02;;;;;;;44.13;27.63;;;;;;;10.41;79.80;102586.75;5047202;28;20033;-42
2021/11/20 06:23:29;;;;;;;47.67;27.13;;;;;;;10.35;79.97;102585.47;5048259;28;20075;-40
2021/11/20 06:25:56;;;;;;;38.83;26.10;;;;;;;10.32;79.68;102580.34;5047636;28;20455;-40
2021/11/20 06:28:21;;;;;;;41.92;26.08;;;;;;;10.31;79.92;102584.03;5040342;28;20024;-41
2021/11/20 06:30:46;;;;;;;37.83;26.17;;;;;;;10.28;80.21;102585.16;5035779;28;20043;-40
2021/11/20 06:33:13;;;;;;;38.88;25.05;;;;;;;10.30;80.21;102576.94;5063189;28;20101;-42
2021/11/20 06:35:39;;;;;;;41.80;26.42;;;;;;;10.30;80.22;102572.41;5055921;28;20468;-40
2021/11/20 06:38:05;;;;;;;43.95;27.75;;;;;;;10.31;80.50;102568.72;5052575;28;20051;-40
2021/11/20 06:40:36;;;;;;;39.33;24.70;;;;;;;10.31;80.21;102574.09;5048391;28;20029;-39
2021/11/20 06:43:04;;;;;;;42.72;26.02;;;;;;;10.32;80.12;102575.81;5057312;28;20075;-40
2021/11/20 06:45:32;;;;;;;40.92;26.13;;;;;;;10.33;80.30;102571.28;5059956;28;20021;-41
2021/11/20 06:47:58;;;;;;;41.88;26.52;;;;;;;10.37;80.37;102571.84;5037585;28;20466;-41
2021/11/20 06:50:25;;;;;;;45.45;26.65;;;;;;;10.35;80.34;102581.91;5036324;28;20105;-40
2021/11/20 06:52:50;;;;;;;45.05;27.52;;;;;;;10.32;80.49;102580.34;5036283;28;20033;-41
2021/11/20 06:55:17;;;;;;;45.33;27.05;;;;;;;10.35;80.55;102582.78;5036488;28;20425;-40
2021/11/20 07:00:26;;;;;;;44.90;27.42;;;;;;;10.39;80.53;102577.97;5037994;28;20057;-40
2021/11/20 07:03:11;;;;;;;40.17;25.55;;;;;;;10.34;80.43;102572.97;5041837;28;20029;-42
2021/11/20 07:05:40;;;;;;;42.17;25.10;;;;;;;10.36;80.43;102579.09;5054048;28;20492;-40
2021/11/20 07:08:07;;;;;;;39.08;24.83;;;;;;;10.41;80.61;102568.75;5054535;28;20017;-40
2021/11/20 07:10:34;;;;;;;44.22;26.98;;;;;;;10.40;80.31;102568.88;5045664;28;20075;-41
2021/11/20 07:12:59;;;;;;;39.55;24.92;;;;;;;10.42;80.60;102572.28;5055900;28;20037;-40
2021/11/20 07:15:26;;;;;;;45.00;25.45;;;;;;;10.40;80.47;102568.88;5054819;28;20029;-40
2021/11/20 07:17:52;;;;;;;44.65;25.45;;;;;;;10.37;80.36;102571.84;5054155;28;20375;-40
2021/11/20 07:20:20;;;;;;;38.58;24.40;;;;;;;10.37;80.58;102570.00;5053943;28;20029;-40
2021/11/20 07:22:45;;;;;;;45.72;25.35;;;;;;;10.37;80.71;102570.00;5055516;28;20032;-41
2021/11/20 07:25:11;;;;;;;38.78;23.70;;;;;;;10.38;80.63;102573.56;5055035;28;20049;-40
2021/11/20 07:27:37;;;;;;;42.28;25.38;;;;;;;10.38;80.61;102563.66;5055155;28;20468;-41
2021/11/20 07:30:05;;;;;;;46.22;25.88;;;;;;;10.37;80.49;102550.31;5048490;28;20033;-40
2021/11/20 07:32:30;;;;;;;37.85;25.77;;;;;;;10.42;80.56;102553.44;5045379;28;20053;-40
2021/11/20 07:34:56;;;;;;;42.13;26.63;;;;;;;10.39;80.28;102554.56;5054695;28;20435;-40
2021/11/20 07:37:22;;;;;;;41.40;25.67;;;;;;;10.41;80.34;102549.06;5054977;28;20110;-41
2021/11/20 07:39:48;;;;;;;41.95;25.25;;;;;;;10.38;80.17;102546.66;5055062;28;20052;-40
2021/11/20 07:42:13;;;;;;;43.00;26.35;;;;;;;10.40;80.53;102547.34;5054988;28;20053;-41
2021/11/20 07:44:39;;;;;;;46.20;27.77;;;;;;;10.40;80.50;102547.34;5045459;28;20028;-40
2021/11/20 07:47:04;;;;;;;45.28;27.70;;;;;;;10.37;80.48;102550.31;5037984;28;20369;-41
2021/11/20 07:49:30;;;;;;;47.33;28.33;;;;;;;10.38;80.46;102554.75;5053762;28;20113;-41
2021/11/20 07:51:55;;;;;;;42.78;26.83;;;;;;;10.42;80.37;102548.06;5048009;28;20496;-41
2021/11/20 07:54:21;;;;;;;50.33;29.00;;;;;;;10.44;80.54;102554.16;5034580;28;20125;-41
2021/11/20 07:56:46;;;;;;;49.42;29.30;;;;;;;10.39;80.57;102549.19;5034475;28;20104;-41
2021/11/20 07:59:13;;;;;;;51.00;28.75;;;;;;;10.41;80.64;102549.91;5034484;28;20030;-40
2021/11/20 08:01:39;;;;;;;53.30;30.13;;;;;;;10.40;80.88;102544.66;5034699;28;20065;-40
2021/11/20 08:04:05;;;;;;;54.90;30.88;;;;;;;10.41;80.80;102543.69;5041133;28;20059;-40
2021/11/20 08:06:31;;;;;;;59.60;30.92;;;;;;;10.40;81.04;102536.59;5054000;28;20025;-40
2021/11/20 08:09:02;;;;;;;61.90;33.72;;;;;;;10.38;81.02;102531.34;5054025;28;20040;-40
2021/11/20 08:11:28;;;;;;;54.72;32.58;;;;;;;10.43;80.76;102534.47;5054200;28;20036;-41
2021/11/20 08:13:53;;;;;;;52.72;31.63;;;;;;;10.46;80.84;102530.66;5053968;28;20035;-41
2021/11/20 08:16:19;;;;;;;59.40;34.50;;;;;;;10.52;81.18;102538.16;5054315;28;20062;-40
2021/11/20 08:18:44;;;;;;;57.30;32.63;;;;;;;10.48;80.93;102528.69;5053948;28;20441;-41
2021/11/20 08:21:11;;;;;;;60.92;32.88;;;;;;;10.46;81.24;102517.19;5053887;28;20033;-41
2021/11/20 08:23:36;;;;;;;56.33;32.80;;;;;;;10.48;80.99;102516.06;5054217;28;20111;-40
2021/11/20 08:26:03;;;;;;;57.67;34.42;;;;;;;10.49;81.37;102512.38;5052321;28;20128;-40
2021/11/20 08:28:29;;;;;;;59.78;33.13;;;;;;;10.52;81.30;102511.25;5053896;28;20029;-40
2021/11/20 08:30:55;;;;;;;54.25;32.13;;;;;;;10.51;81.15;102507.72;5053885;28;20642;-41
2021/11/20 08:33:21;;;;;;;56.13;32.17;;;;;;;10.52;81.35;102514.78;5053616;28;20074;-41
2021/11/20 08:35:47;;;;;;;60.08;31.70;;;;;;;10.51;81.36;102507.72;5053843;28;20090;-41
2021/11/20 08:38:13;;;;;;;57.65;31.90;;;;;;;10.50;81.52;102503.31;5053188;28;20025;-41
2021/11/20 08:40:42;;;;;;;58.75;31.98;;;;;;;10.50;81.57;102499.75;5046023;28;20014;-40
2021/11/20 08:43:08;;;;;;;60.60;32.50;;;;;;;10.50;81.56;102497.06;5033565;28;20059;-41
2021/11/20 08:45:40;;;;;;;53.47;31.67;;;;;;;10.52;81.86;102505.88;5033469;28;20021;-41
2021/11/20 08:48:06;;;;;;;56.88;31.33;;;;;;;10.56;81.58;102496.53;5032260;28;20036;-41
2021/11/20 08:50:37;;;;;;;51.40;30.17;;;;;;;10.55;81.86;102492.13;5033129;28;20037;-39
2021/11/20 08:53:04;;;;;;;51.45;29.02;;;;;;;10.54;81.80;102490.44;5033128;28;20484;-40
2021/11/20 08:55:29;;;;;;;60.92;31.80;;;;;;;10.55;82.20;102494.81;5033153;28;20033;-41
2021/11/20 08:57:55;;;;;;;56.30;30.02;;;;;;;10.54;82.46;102493.97;5033022;28;20026;-40
2021/11/20 09:00:35;;;;;;;56.95;30.52;;;;;;;10.50;82.54;102497.91;5032476;28;20033;-41
2021/11/20 09:03:08;;;;;;;58.20;31.50;;;;;;;10.49;82.58;102495.38;5053187;28;20033;-41
2021/11/20 09:05:40;;;;;;;55.40;29.73;;;;;;;10.51;82.69;102482.63;5053443;28;20435;-41
2021/11/20 09:08:16;;;;;;;60.40;32.20;;;;;;;10.54;82.61;102485.03;5052573;28;20369;-41
2021/11/20 09:11:01;;;;;;;59.67;30.48;;;;;;;10.50;82.73;102471.00;5047115;28;20078;-41
2021/11/20 09:13:34;;;;;;;58.28;31.60;;;;;;;10.52;82.78;102481.63;5038453;28;20472;-41
2021/11/20 09:16:10;;;;;;;61.10;31.90;;;;;;;10.48;82.92;102474.84;5017400;28;20027;-41
2021/11/20 09:18:36;;;;;;;64.47;31.63;;;;;;;10.53;83.00;102475.25;5045381;28;20025;-41
2021/11/20 09:21:03;;;;;;;63.67;31.65;;;;;;;10.54;83.34;102474.28;5032249;28;20028;-41
2021/11/20 09:23:29;;;;;;;60.73;31.77;;;;;;;10.57;83.04;102482.06;5033061;28;20029;-41
2021/11/20 09:25:55;;;;;;;63.15;31.60;;;;;;;10.56;83.09;102469.59;5033031;28;20330;-41
2021/11/20 09:28:23;;;;;;;57.85;29.95;;;;;;;10.60;83.19;102468.31;5038062;28;20462;-41
2021/11/20 09:30:52;;;;;;;55.33;30.10;;;;;;;10.66;83.33;102469.56;5053576;28;20021;-42
2021/11/20 09:33:19;;;;;;;54.70;30.25;;;;;;;10.64;83.04;102464.34;5039509;28;20091;-42
2021/11/20 09:35:45;;;;;;;60.78;30.15;;;;;;;10.65;83.18;102468.75;5064016;28;20123;-41
2021/11/20 09:38:12;;;;;;;52.60;28.42;;;;;;;10.69;83.31;102458.50;5032954;28;20105;-41
2021/11/20 09:40:45;;;;;;;56.20;27.77;;;;;;;10.67;83.06;102466.75;5032687;28;20080;-40
2021/11/20 09:43:14;;;;;;;61.75;29.20;;;;;;;10.70;83.14;102469.16;5028977;28;20509;-41
2021/11/20 09:45:51;;;;;;;54.25;29.27;;;;;;;10.70;83.17;102471.84;5011674;28;20088;-41
2021/11/20 09:48:24;;;;;;;56.33;27.95;;;;;;;10.73;83.03;102471.56;5029560;28;20060;-41
2021/11/20 09:51:31;;;;;;;43.17;24.02;;;;;;;10.76;83.04;102465.88;5028391;28;20029;-41
2021/11/20 09:53:57;;;;;;;53.60;27.27;;;;;;;10.76;83.01;102465.88;5029399;28;20038;-41
2021/11/20 09:56:36;;;;;;;49.38;26.25;;;;;;;10.80;82.83;102465.63;5028204;28;20037;-41
2021/11/20 09:59:06;;;;;;;44.95;27.48;;;;;;;10.81;82.58;102456.53;5028575;28;20033;-40
2021/11/20 10:01:58;;;;;;;47.92;27.58;;;;;;;10.84;82.52;102469.72;5029420;28;20116;-41
2021/11/20 10:04:48;;;;;;;45.00;28.13;;;;;;;10.80;82.56;102465.63;5031111;28;20045;-40
2021/11/20 10:07:26;;;;;;;48.78;28.98;;;;;;;10.81;82.76;102456.53;5030210;28;20033;-41
2021/11/20 10:09:53;;;;;;;;;;;;;;;10.79;82.91;102461.22;5033897;28;20431;-42
2021/11/20 10:12:46;;;;;;;49.97;28.42;;;;;;;10.79;82.88;102448.59;5031900;28;19967;-42
2021/11/20 10:15:35;;;;;;;46.58;28.52;;;;;;;10.84;83.05;102440.94;5029750;28;20052;-40
2021/11/20 10:18:12;;;;;;;42.13;25.90;;;;;;;10.84;83.04;102445.47;5033140;28;20663;-41
2021/11/20 10:20:42;;;;;;;43.22;27.13;;;;;;;10.90;83.22;102440.38;5036957;28;20039;-40
2021/11/20 10:23:11;;;;;;;44.13;26.10;;;;;;;10.96;83.18;102436.25;5051077;28;20531;-41
2021/11/20 10:25:54;;;;;;;38.67;23.20;;;;;;;10.99;83.32;102441.34;5052235;28;20396;-41
2021/11/20 10:28:38;;;;;;;44.80;23.77;;;;;;;11.02;83.04;102446.44;5052986;28;20041;-41
2021/11/20 10:31:10;;;;;;;39.35;22.85;;;;;;;11.06;83.18;102439.75;5054696;28;20046;-41
2021/11/20 10:33:35;;;;;;;33.80;20.23;;;;;;;11.12;82.62;102439.16;5051851;28;20057;-40
2021/11/20 10:36:12;;;;;;;31.35;20.65;;;;;;;11.19;82.55;102436.75;5050653;28;20496;-40
2021/11/20 10:38:45;;;;;;;33.17;20.23;;;;;;;11.26;82.22;102439.69;5046825;28;20055;-41
2021/11/20 10:41:40;;;;;;;25.48;17.98;;;;;;;11.32;81.80;102439.09;5074964;28;20056;-41
2021/11/20 10:44:13;;;;;;;25.55;14.35;;;;;;;11.29;81.06;102431.31;5075323;28;20111;-41
2021/11/20 10:46:57;;;;;;;24.50;15.75;;;;;;;11.34;81.11;102437.09;5075261;28;20460;-41
2021/11/20 10:49:37;;;;;;;22.52;13.93;;;;;;;11.33;80.46;102430.03;5075225;28;20034;-41
2021/11/20 10:52:24;;;;;;;19.13;12.55;;;;;;;11.30;80.23;102427.63;5061852;28;20083;-42
2021/11/20 10:55:20;;;;;;;18.20;12.60;;;;;;;11.33;80.39;102416.56;5034905;28;20033;-41
2021/11/20 10:58:15;;;;;;;18.60;12.30;;;;;;;11.30;80.53;102422.25;5034856;28;20030;-41
2021/11/20 11:00:46;;;;;;;21.80;13.55;;;;;;;11.31;80.51;102405.06;5038506;28;20047;-41
2021/11/20 11:03:25;;;;;;;19.20;12.98;;;;;;;11.29;80.67;102404.34;5054809;28;20038;-41
2021/11/20 11:06:27;;;;;;;18.55;13.20;;;;;;;11.31;80.69;102396.97;5042044;28;20025;-41
2021/11/20 11:08:58;;;;;;;16.00;12.60;;;;;;;11.29;80.93;102389.03;5037480;28;20036;-41
2021/11/20 11:11:43;;;;;;;15.93;13.30;;;;;;;11.32;80.93;102391.44;5034576;28;20083;-41
2021/11/20 11:14:32;;;;;;;21.95;12.55;;;;;;;11.28;81.09;102384.66;5033375;28;20435;-41
2021/11/20 11:17:03;;;;;;;21.67;13.88;;;;;;;11.26;81.36;102391.19;5034785;28;20036;-40
2021/11/20 11:19:55;;;;;;;19.17;12.40;;;;;;;11.17;81.49;102372.22;5033370;28;20025;-40
2021/11/20 11:22:26;;;;;;;21.88;13.27;;;;;;;11.24;81.89;102374.31;5033396;28;20149;-41
2021/11/20 11:25:10;;;;;;;19.05;13.05;;;;;;;11.24;81.66;102363.53;5032602;28;20132;-40
2021/11/20 11:27:41;;;;;;;20.27;11.82;;;;;;;11.27;81.83;102363.22;5036127;28;20104;-41
2021/11/20 11:30:28;;;;;;;17.63;11.20;;;;;;;11.24;81.91;102361.66;5054385;28;20038;-40